createdAt,value
2023-04-18T00:00:27.864Z,7.15
2023-04-18T00:02:54.579Z,7.53
2023-04-18T00:05:21.687Z,8.15
2023-04-18T00:07:48.455Z,6.68
2023-04-18T00:10:16.574Z,7.30
2023-04-18T00:12:43.001Z,7.30
2023-04-18T00:15:11.008Z,8.40
2023-04-18T00:17:37.508Z,7.85
2023-04-18T00:20:04.549Z,7.60
2023-04-18T00:22:30.947Z,7.80
2023-04-18T00:24:57.300Z,8.38
2023-04-18T00:27:25.137Z,8.32
2023-04-18T00:29:51.566Z,8.35
2023-04-18T00:32:18.230Z,7.90
2023-04-18T00:34:45.137Z,8.15
2023-04-18T00:37:12.730Z,7.82
2023-04-18T00:39:39.139Z,7.45
2023-04-18T00:42:05.936Z,7.63
2023-04-18T00:44:33.756Z,7.43
2023-04-18T00:47:00.151Z,8.48
2023-04-18T00:49:27.404Z,7.55
2023-04-18T00:51:55.502Z,8.50
2023-04-18T00:54:22.393Z,7.40
2023-04-18T00:56:48.798Z,8.32
2023-04-18T00:59:15.226Z,7.47
2023-04-18T01:01:43.168Z,8.10
2023-04-18T01:04:09.631Z,8.00
2023-04-18T01:06:36.283Z,8.35
2023-04-18T01:09:02.829Z,8.23
2023-04-18T01:11:29.201Z,7.63
2023-04-18T01:13:59.546Z,8.30
2023-04-18T01:16:26.120Z,8.57
2023-04-18T01:18:53.828Z,8.10
2023-04-18T01:21:20.280Z,8.38
2023-04-18T01:23:47.785Z,8.95
2023-04-18T01:26:15.552Z,8.43
2023-04-18T01:28:41.971Z,9.05
2023-04-18T01:31:08.377Z,8.65
2023-04-18T01:33:34.776Z,9.02
2023-04-18T01:36:01.216Z,9.40
2023-04-18T01:38:27.591Z,8.75
2023-04-18T01:40:53.975Z,9.00
2023-04-18T01:43:21.778Z,9.10
2023-04-18T01:45:48.137Z,10.07
2023-04-18T01:48:14.491Z,10.80
2023-04-18T01:50:40.918Z,9.85
2023-04-18T01:53:07.273Z,9.48
2023-04-18T01:55:33.607Z,9.90
2023-04-18T01:58:00.020Z,10.38
2023-04-18T02:00:27.846Z,10.55
2023-04-18T02:02:54.349Z,10.93
2023-04-18T02:05:21.011Z,10.68
2023-04-18T02:07:47.363Z,11.57
2023-04-18T02:10:13.792Z,11.45
2023-04-18T02:12:40.278Z,11.40
2023-04-18T02:15:07.921Z,12.07
2023-04-18T02:17:35.723Z,12.60
2023-04-18T02:20:02.433Z,12.38
2023-04-18T02:22:28.893Z,12.27
2023-04-18T02:24:55.267Z,13.50
2023-04-18T02:27:21.686Z,14.15
2023-04-18T02:29:48.043Z,13.95
2023-04-18T02:32:14.406Z,12.75
2023-04-18T02:34:42.216Z,13.73
2023-04-18T02:37:08.573Z,13.32
2023-04-18T02:39:34.955Z,13.45
2023-04-18T02:42:01.343Z,12.60
2023-04-18T02:44:27.717Z,12.95
2023-04-18T02:46:54.092Z,13.02
2023-04-18T02:49:20.464Z,12.82
2023-04-18T02:51:48.165Z,14.25
2023-04-18T02:54:14.778Z,13.00
2023-04-18T02:56:41.392Z,14.07
2023-04-18T02:59:07.828Z,13.77
2023-04-18T03:01:34.321Z,12.35
2023-04-18T03:04:00.821Z,13.73
2023-04-18T03:06:27.189Z,13.82
2023-04-18T03:08:55.619Z,12.70
2023-04-18T03:11:22.077Z,12.93
2023-04-18T03:13:48.498Z,12.35
2023-04-18T03:16:15.134Z,12.48
2023-04-18T03:18:41.692Z,12.15
2023-04-18T03:21:08.053Z,13.07
2023-04-18T03:23:34.438Z,12.30
2023-04-18T03:26:02.274Z,11.40
2023-04-18T03:28:28.658Z,12.70
2023-04-18T03:30:55.136Z,12.30
2023-04-18T03:33:21.533Z,13.52
2023-04-18T03:35:47.967Z,13.55
2023-04-18T03:38:14.369Z,12.82
2023-04-18T03:40:40.797Z,13.80
2023-04-18T03:43:08.478Z,12.57
2023-04-18T03:45:34.949Z,13.20
2023-04-18T03:48:01.574Z,13.77
2023-04-18T03:50:28.262Z,12.82
2023-04-18T03:52:54.707Z,12.50
2023-04-18T03:55:21.172Z,13.43
2023-04-18T03:57:47.816Z,12.40
2023-04-18T04:00:16.231Z,12.55
2023-04-18T04:02:42.810Z,14.13
2023-04-18T04:05:09.800Z,14.07
2023-04-18T04:07:36.277Z,13.40
2023-04-18T04:10:02.836Z,13.82
2023-04-18T04:12:29.247Z,14.38
2023-04-18T04:14:55.607Z,13.38
2023-04-18T04:17:23.390Z,12.55
2023-04-18T04:19:49.812Z,12.90
2023-04-18T04:22:16.171Z,12.70
2023-04-18T04:24:42.820Z,13.60
2023-04-18T04:27:09.221Z,14.55
2023-04-18T04:29:35.620Z,12.38
2023-04-18T04:32:02.037Z,12.85
2023-04-18T04:34:29.814Z,12.80
2023-04-18T04:36:56.204Z,13.35
2023-04-18T04:39:22.600Z,13.82
2023-04-18T04:41:49.082Z,13.80
2023-04-18T04:44:15.807Z,11.45
2023-04-18T04:46:42.388Z,12.07
2023-04-18T04:49:08.763Z,13.27
2023-04-18T04:51:36.487Z,11.88
2023-04-18T04:54:03.146Z,12.45
2023-04-18T04:56:29.782Z,12.45
2023-04-18T04:58:56.275Z,11.27
2023-04-18T05:01:22.781Z,10.55
2023-04-18T05:03:49.550Z,12.63
2023-04-18T05:06:16.089Z,12.50
2023-04-18T05:08:43.861Z,13.13
2023-04-18T05:11:10.213Z,11.85
2023-04-18T05:13:36.556Z,12.35
2023-04-18T05:16:03.395Z,11.82
2023-04-18T05:18:29.891Z,12.82
2023-04-18T05:20:56.295Z,12.77
2023-04-18T05:23:22.712Z,13.30
2023-04-18T05:25:50.779Z,12.23
2023-04-18T05:28:17.159Z,12.15
2023-04-18T05:30:44.630Z,14.40
2023-04-18T05:33:11.116Z,13.18
2023-04-18T05:35:37.617Z,12.77
2023-04-18T05:38:04.024Z,13.10
2023-04-18T05:40:30.466Z,12.32
2023-04-18T05:42:58.190Z,12.88
2023-04-18T05:45:24.628Z,13.02
2023-04-18T05:47:51.021Z,14.30
2023-04-18T05:50:17.435Z,12.73
2023-04-18T05:52:43.839Z,13.43
2023-04-18T05:55:10.213Z,13.30
2023-04-18T05:57:36.656Z,12.55
2023-04-18T06:00:05.554Z,14.50
2023-04-18T06:02:32.092Z,12.93
2023-04-18T06:04:58.862Z,13.07
2023-04-18T06:07:25.408Z,13.07
2023-04-18T06:09:51.990Z,13.18
2023-04-18T06:12:18.378Z,12.80
2023-04-18T06:14:44.814Z,12.68
2023-04-18T06:17:12.809Z,14.52
2023-04-18T06:19:39.209Z,13.25
2023-04-18T06:22:05.674Z,13.73
2023-04-18T06:24:32.071Z,13.38
2023-04-18T06:26:58.443Z,13.57
2023-04-18T06:29:24.936Z,13.70
2023-04-18T06:31:51.321Z,13.27
2023-04-18T06:34:19.068Z,13.65
2023-04-18T06:36:45.633Z,13.15
2023-04-18T06:39:12.052Z,14.50
2023-04-18T06:41:38.427Z,13.63
2023-04-18T06:44:04.998Z,13.85
2023-04-18T06:46:32.018Z,13.68
2023-04-18T06:48:58.611Z,13.82
2023-04-18T06:51:26.406Z,14.20
2023-04-18T06:53:52.923Z,13.63
2023-04-18T06:56:19.789Z,13.13
2023-04-18T06:58:46.345Z,12.75
2023-04-18T07:01:12.738Z,13.27
2023-04-18T07:03:39.284Z,13.60
2023-04-18T07:06:06.253Z,13.55
2023-04-18T07:08:34.089Z,13.65
2023-04-18T07:11:00.471Z,14.63
2023-04-18T07:13:26.890Z,13.75
2023-04-18T07:15:53.266Z,14.25
2023-04-18T07:18:30.312Z,14.07
2023-04-18T07:21:03.717Z,13.57
2023-04-18T07:23:30.161Z,14.40
2023-04-18T07:25:58.109Z,13.95
2023-04-18T07:28:24.721Z,12.85
2023-04-18T07:30:51.289Z,12.80
2023-04-18T07:33:20.101Z,14.48
2023-04-18T07:35:46.718Z,13.20
2023-04-18T07:38:13.363Z,14.00
2023-04-18T07:40:39.792Z,13.98
2023-04-18T07:43:07.892Z,15.13
2023-04-18T07:45:34.281Z,14.40
2023-04-18T07:48:00.686Z,14.35
2023-04-18T07:50:27.332Z,15.13
2023-04-18T07:52:53.760Z,14.32
2023-04-18T07:55:20.129Z,13.27
2023-04-18T07:57:47.539Z,14.70
2023-04-18T08:00:16.434Z,12.52
2023-04-18T08:02:43.076Z,14.63
2023-04-18T08:05:10.100Z,13.45
2023-04-18T08:07:36.553Z,13.48
2023-04-18T08:10:03.080Z,13.10
2023-04-18T08:12:29.735Z,12.90
2023-04-18T08:14:56.233Z,13.82
2023-04-18T08:17:24.051Z,13.02
2023-04-18T08:19:50.668Z,12.32
2023-04-18T08:22:17.100Z,12.68
2023-04-18T08:25:01.038Z,12.13
2023-04-18T08:27:29.913Z,11.20
2023-04-18T08:29:56.287Z,11.63
2023-04-18T08:32:24.047Z,11.13
2023-04-18T08:34:50.470Z,11.35
2023-04-18T08:37:16.893Z,11.68
2023-04-18T08:39:43.328Z,10.00
2023-04-18T08:42:10.553Z,11.10
2023-04-18T08:44:37.238Z,11.07
2023-04-18T08:47:03.650Z,10.40
2023-04-18T08:49:31.797Z,10.77
2023-04-18T08:51:59.773Z,10.15
2023-04-18T08:54:27.412Z,10.23
2023-04-18T08:57:04.492Z,10.30
2023-04-18T08:59:30.904Z,10.55
2023-04-18T09:01:57.825Z,9.98
2023-04-18T09:04:36.905Z,10.05
2023-04-18T09:07:04.824Z,9.75
2023-04-18T09:09:45.947Z,8.55
2023-04-18T09:12:13.755Z,9.10
2023-04-18T09:14:41.302Z,9.70
2023-04-18T09:17:07.756Z,8.98
2023-04-18T09:19:35.546Z,9.93
2023-04-18T09:22:02.834Z,9.50
2023-04-18T09:24:29.244Z,9.05
2023-04-18T09:26:56.773Z,10.32
2023-04-18T09:29:40.973Z,10.60
2023-04-18T09:32:07.398Z,9.20
2023-04-18T09:34:41.966Z,9.02
2023-04-18T09:37:10.133Z,8.75
2023-04-18T09:39:37.877Z,8.35
2023-04-18T09:42:06.018Z,8.63
2023-04-18T09:44:32.501Z,7.72
2023-04-18T09:46:58.876Z,8.68
2023-04-18T09:49:25.435Z,8.45
2023-04-18T09:51:54.529Z,9.10
2023-04-18T09:54:23.847Z,8.35
2023-04-18T09:56:51.862Z,7.20
2023-04-18T09:59:32.812Z,8.40
2023-04-18T10:01:59.931Z,7.45
2023-04-18T10:04:28.055Z,6.80
2023-04-18T10:06:55.963Z,7.57
2023-04-18T10:09:22.915Z,8.80
2023-04-18T10:11:50.015Z,9.20
2023-04-18T10:14:17.346Z,9.93
2023-04-18T10:16:44.653Z,7.72
2023-04-18T10:19:29.204Z,8.82
2023-04-18T10:21:58.487Z,8.68
2023-04-18T10:24:47.777Z,7.75
2023-04-18T10:27:14.345Z,8.32
2023-04-18T10:29:47.869Z,7.78
2023-04-18T10:32:14.544Z,8.57
2023-04-18T10:34:41.062Z,7.82
2023-04-18T10:37:08.858Z,7.60
2023-04-18T10:39:49.957Z,7.07
2023-04-18T10:42:16.532Z,7.45
2023-04-18T10:44:42.939Z,7.90
2023-04-18T10:47:21.296Z,7.10
2023-04-18T10:49:56.455Z,7.88
2023-04-18T10:52:24.207Z,7.43
2023-04-18T10:54:56.079Z,7.55
2023-04-18T10:57:24.059Z,6.72
2023-04-18T10:59:51.774Z,7.20
2023-04-18T11:02:24.699Z,8.05
2023-04-18T11:04:52.120Z,7.47
2023-04-18T11:07:18.688Z,6.75
2023-04-18T11:09:53.525Z,6.93
2023-04-18T11:12:19.957Z,6.03
2023-04-18T11:14:50.097Z,6.55
2023-04-18T11:17:18.354Z,7.82
2023-04-18T11:19:44.759Z,6.72
2023-04-18T11:22:11.952Z,6.45
2023-04-18T11:24:39.098Z,7.85
2023-04-18T11:27:08.762Z,6.55
2023-04-18T11:29:35.155Z,6.85
2023-04-18T11:32:01.651Z,6.55
2023-04-18T11:34:28.995Z,6.80
2023-04-18T11:36:55.503Z,6.20
2023-04-18T11:39:22.659Z,7.50
2023-04-18T11:41:49.152Z,6.82
2023-04-18T11:44:17.081Z,6.57
2023-04-18T11:46:43.484Z,7.55
2023-04-18T11:49:24.424Z,7.90
2023-04-18T11:51:50.776Z,7.32
2023-04-18T11:54:38.621Z,7.13
2023-04-18T11:57:05.632Z,7.95
2023-04-18T11:59:33.529Z,8.73
2023-04-18T12:02:14.687Z,7.40
2023-04-18T12:04:53.637Z,7.60
2023-04-18T12:07:36.771Z,7.15
2023-04-18T12:10:05.886Z,7.80
2023-04-18T12:12:32.442Z,6.75
2023-04-18T12:15:01.800Z,7.15
2023-04-18T12:17:28.828Z,7.35
2023-04-18T12:19:55.261Z,7.05
2023-04-18T12:22:37.463Z,7.63
2023-04-18T12:25:13.740Z,7.43
2023-04-18T12:27:51.035Z,7.32
2023-04-18T12:30:20.051Z,7.15
2023-04-18T12:32:47.724Z,7.20
2023-04-18T12:35:15.062Z,6.93
2023-04-18T12:37:41.490Z,7.30
2023-04-18T12:40:08.882Z,6.38
2023-04-18T12:42:35.273Z,7.07
2023-04-18T12:45:01.680Z,6.55
2023-04-18T12:47:29.455Z,5.93
2023-04-18T12:49:55.837Z,6.40
2023-04-18T12:52:22.200Z,6.18
2023-04-18T12:54:48.580Z,6.57
2023-04-18T12:57:14.961Z,6.47
2023-04-18T12:59:41.334Z,6.90
2023-04-18T13:02:07.807Z,6.57
2023-04-18T13:04:35.799Z,7.20
2023-04-18T13:07:02.444Z,7.45
2023-04-18T13:09:28.811Z,6.75
2023-04-18T13:11:55.247Z,6.72
2023-04-18T13:14:21.858Z,6.63
2023-04-18T13:16:48.343Z,6.50
2023-04-18T13:19:14.940Z,6.20
2023-04-18T13:21:42.906Z,7.05
2023-04-18T13:24:09.325Z,6.75
2023-04-18T13:26:35.718Z,7.07
2023-04-18T13:29:02.164Z,7.35
2023-04-18T13:31:28.926Z,7.00
2023-04-18T13:33:55.362Z,7.32
2023-04-18T13:36:21.751Z,7.68
2023-04-18T13:38:50.123Z,7.40
2023-04-18T13:41:16.568Z,7.10
2023-04-18T13:43:42.944Z,6.55
2023-04-18T13:46:09.693Z,8.20
2023-04-18T13:48:36.122Z,7.15
2023-04-18T13:51:02.832Z,7.57
2023-04-18T13:53:30.843Z,7.05
2023-04-18T13:55:59.046Z,7.28
2023-04-18T13:58:25.516Z,7.70
2023-04-18T14:00:51.963Z,7.28
2023-04-18T14:03:18.724Z,6.95
2023-04-18T14:05:45.228Z,7.75
2023-04-18T14:08:11.649Z,6.75
2023-04-18T14:10:38.131Z,6.72
2023-04-18T14:13:05.838Z,7.38
2023-04-18T14:15:32.311Z,7.47
2023-04-18T14:17:58.807Z,7.43
2023-04-18T14:20:25.345Z,7.63
2023-04-18T14:22:53.223Z,8.00
2023-04-18T14:25:19.860Z,7.63
2023-04-18T14:27:47.458Z,7.03
2023-04-18T14:30:15.575Z,7.35
2023-04-18T14:32:42.025Z,7.03
2023-04-18T14:35:10.098Z,7.20
2023-04-18T14:37:36.572Z,6.82
2023-04-18T14:40:03.199Z,6.60
2023-04-18T14:42:29.568Z,6.53
2023-04-18T14:44:55.943Z,6.75
2023-04-18T14:47:24.325Z,6.43
2023-04-18T14:49:50.899Z,6.10
2023-04-18T14:52:17.285Z,7.13
2023-04-18T14:54:43.700Z,6.18
2023-04-18T14:57:10.073Z,6.05
2023-04-18T14:59:36.501Z,6.68
2023-04-18T15:02:03.047Z,7.50
2023-04-18T15:04:30.940Z,6.63
2023-04-18T15:06:57.362Z,6.40
2023-04-18T15:09:23.839Z,6.90
2023-04-18T15:11:50.373Z,7.15
2023-04-18T15:14:17.116Z,6.45
2023-04-18T15:16:43.717Z,7.05
2023-04-18T15:19:10.132Z,7.20
2023-04-18T15:21:37.867Z,6.45
2023-04-18T15:24:04.730Z,6.63
2023-04-18T15:26:33.147Z,6.47
2023-04-18T15:29:01.747Z,6.57
2023-04-18T15:31:28.169Z,6.32
2023-04-18T15:33:54.916Z,7.10
2023-04-18T15:36:21.294Z,7.28
2023-04-18T15:38:49.028Z,7.80
2023-04-18T15:41:15.428Z,7.70
2023-04-18T15:43:41.827Z,7.43
2023-04-18T15:46:08.502Z,7.18
2023-04-18T15:48:34.977Z,7.63
2023-04-18T15:51:01.583Z,8.38
2023-04-18T15:53:28.006Z,8.93
2023-04-18T15:55:55.907Z,8.95
2023-04-18T15:58:22.486Z,8.05
2023-04-18T16:00:48.869Z,9.63
2023-04-18T16:03:15.514Z,8.50
2023-04-18T16:05:42.004Z,9.45
2023-04-18T16:08:08.725Z,8.82
2023-04-18T16:10:35.118Z,9.70
2023-04-18T16:13:03.001Z,8.00
2023-04-18T16:15:30.588Z,8.68
2023-04-18T16:17:57.183Z,8.80
2023-04-18T16:20:23.669Z,8.80
2023-04-18T16:22:50.111Z,8.65
2023-04-18T16:25:16.575Z,9.82
2023-04-18T16:27:42.960Z,8.25
2023-04-18T16:30:11.882Z,9.57
2023-04-18T16:32:38.515Z,9.90
2023-04-18T16:35:05.497Z,9.27
2023-04-18T16:37:32.001Z,9.95
2023-04-18T16:39:58.382Z,8.90
2023-04-18T16:42:24.744Z,10.05
2023-04-18T16:44:51.136Z,10.35
2023-04-18T16:47:18.827Z,9.88
2023-04-18T16:49:45.200Z,9.95
2023-04-18T16:52:12.033Z,10.77
2023-04-18T16:54:38.412Z,9.40
2023-04-18T16:57:04.809Z,11.27
2023-04-18T16:59:31.268Z,10.00
2023-04-18T17:01:59.123Z,10.63
2023-04-18T17:04:27.002Z,9.32
2023-04-18T17:06:53.558Z,10.15
2023-04-18T17:09:19.938Z,9.95
2023-04-18T17:11:46.340Z,10.45
2023-04-18T17:14:12.975Z,10.05
2023-04-18T17:16:41.046Z,10.50
2023-04-18T17:19:07.953Z,8.18
2023-04-18T17:21:36.760Z,10.30
2023-04-18T17:24:03.921Z,9.40
2023-04-18T17:26:30.472Z,10.18
2023-04-18T17:28:56.880Z,9.82
2023-04-18T17:31:23.395Z,10.27
2023-04-18T17:33:49.843Z,10.18
2023-04-18T17:36:16.632Z,11.27
2023-04-18T17:38:44.424Z,10.68
2023-04-18T17:41:10.773Z,10.95
2023-04-18T17:43:37.534Z,11.50
2023-04-18T17:46:04.378Z,10.27
2023-04-18T17:48:30.849Z,10.75
2023-04-18T17:50:57.235Z,11.73
2023-04-18T17:53:23.680Z,11.00
2023-04-18T17:55:51.398Z,10.93
2023-04-18T17:58:17.975Z,11.30
2023-04-18T18:00:44.691Z,10.60
2023-04-18T18:03:12.996Z,9.85
2023-04-18T18:05:39.630Z,10.35
2023-04-18T18:08:06.024Z,10.02
2023-04-18T18:10:33.556Z,10.32
2023-04-18T18:13:01.303Z,10.07
2023-04-18T18:15:27.745Z,10.05
2023-04-18T18:17:54.236Z,10.30
2023-04-18T18:20:20.734Z,10.23
2023-04-18T18:22:47.588Z,9.95
2023-04-18T18:25:14.051Z,10.38
2023-04-18T18:27:40.700Z,10.13
2023-04-18T18:30:09.112Z,9.70
2023-04-18T18:32:35.581Z,9.73
2023-04-18T18:35:02.182Z,10.07
2023-04-18T18:37:28.603Z,10.07
2023-04-18T18:39:55.134Z,10.00
2023-04-18T18:42:21.659Z,9.63
2023-04-18T18:44:48.074Z,12.63
2023-04-18T18:47:16.481Z,10.48
2023-04-18T18:49:42.956Z,10.95
2023-04-18T18:52:09.385Z,10.35
2023-04-18T18:54:35.796Z,10.93
2023-04-18T18:57:02.193Z,11.15
2023-04-18T18:59:28.926Z,11.40
2023-04-18T19:01:55.468Z,11.07
2023-04-18T19:04:24.087Z,10.50
2023-04-18T19:06:50.644Z,10.68
2023-04-18T19:09:17.056Z,11.70
2023-04-18T19:11:43.532Z,10.25
2023-04-18T19:14:09.892Z,10.45
2023-04-18T19:16:36.389Z,10.10
2023-04-18T19:19:02.997Z,10.77
2023-04-18T19:21:30.701Z,10.02
2023-04-18T19:23:57.090Z,9.90
2023-04-18T19:26:23.510Z,10.77
2023-04-18T19:28:49.886Z,10.07
2023-04-18T19:31:16.282Z,9.10
2023-04-18T19:33:42.875Z,8.55
2023-04-18T19:36:09.252Z,8.48
2023-04-18T19:38:36.994Z,8.85
2023-04-18T19:41:03.431Z,8.75
2023-04-18T19:43:29.879Z,8.73
2023-04-18T19:45:56.344Z,9.07
2023-04-18T19:48:22.795Z,7.68
2023-04-18T19:50:49.174Z,7.50
2023-04-18T19:53:15.569Z,7.55
2023-04-18T19:55:44.529Z,6.53
2023-04-18T19:58:10.885Z,6.90
2023-04-18T20:00:37.324Z,6.35
2023-04-18T20:03:04.973Z,5.95
2023-04-18T20:05:31.708Z,5.15
2023-04-18T20:07:58.309Z,6.05
2023-04-18T20:10:24.737Z,5.53
2023-04-18T20:12:52.497Z,5.95
2023-04-18T20:15:19.164Z,5.57
2023-04-18T20:17:45.646Z,4.88
2023-04-18T20:20:12.676Z,6.15
2023-04-18T20:22:39.050Z,5.00
2023-04-18T20:25:06.313Z,5.32
2023-04-18T20:27:32.717Z,5.15
2023-04-18T20:30:00.465Z,5.00
2023-04-18T20:32:26.939Z,4.68
2023-04-18T20:34:53.450Z,5.15
2023-04-18T20:37:19.891Z,5.22
2023-04-18T20:39:46.384Z,5.05
2023-04-18T20:42:12.815Z,5.22
2023-04-18T20:44:39.197Z,5.68
2023-04-18T20:47:07.000Z,5.82
2023-04-18T20:49:33.387Z,6.43
2023-04-18T20:51:59.812Z,4.72
2023-04-18T20:54:26.334Z,4.38
2023-04-18T20:56:52.700Z,4.55
2023-04-18T20:59:19.128Z,4.43
2023-04-18T21:01:45.570Z,4.53
2023-04-18T21:04:13.686Z,4.90
2023-04-18T21:06:40.559Z,4.20
2023-04-18T21:09:07.134Z,3.88
2023-04-18T21:11:33.553Z,4.32
2023-04-18T21:13:59.969Z,4.40
2023-04-18T21:16:26.361Z,4.10
2023-04-18T21:18:53.290Z,4.10
2023-04-18T21:21:21.023Z,4.10
2023-04-18T21:23:47.487Z,4.55
2023-04-18T21:26:13.868Z,4.68
2023-04-18T21:28:53.940Z,4.55
2023-04-18T21:31:20.339Z,4.78
2023-04-18T21:33:46.764Z,4.03
2023-04-18T21:36:13.294Z,4.57
2023-04-18T21:38:41.063Z,5.18
2023-04-18T21:41:07.508Z,5.47
2023-04-18T21:43:33.892Z,5.32
2023-04-18T21:46:00.302Z,5.25
2023-04-18T21:48:26.757Z,5.07
2023-04-18T21:50:54.029Z,5.90
2023-04-18T21:53:20.417Z,6.15
2023-04-18T21:55:48.158Z,5.22
2023-04-18T21:58:14.682Z,5.43
2023-04-18T22:00:41.087Z,5.10
2023-04-18T22:03:07.622Z,4.97
2023-04-18T22:05:34.157Z,5.93
2023-04-18T22:08:00.696Z,5.30
2023-04-18T22:10:27.122Z,4.80
2023-04-18T22:12:54.854Z,4.65
2023-04-18T22:15:21.374Z,5.88
2023-04-18T22:17:48.217Z,5.72
2023-04-18T22:20:14.639Z,5.43
2023-04-18T22:22:40.988Z,5.25
2023-04-18T22:25:08.121Z,5.50
2023-04-18T22:27:34.499Z,5.72
2023-04-18T22:30:02.277Z,5.30
2023-04-18T22:32:28.793Z,5.60
2023-04-18T22:34:55.240Z,5.60
2023-04-18T22:37:21.612Z,6.07
2023-04-18T22:39:47.993Z,6.22
2023-04-18T22:42:14.409Z,5.90
2023-04-18T22:44:40.783Z,5.93
2023-04-18T22:47:08.478Z,6.00
2023-04-18T22:49:34.866Z,5.95
2023-04-18T22:52:01.250Z,5.43
2023-04-18T22:54:27.586Z,6.43
2023-04-18T22:56:53.975Z,5.78
2023-04-18T22:59:20.351Z,5.60
2023-04-18T23:01:46.800Z,6.63
2023-04-18T23:04:15.006Z,5.63
2023-04-18T23:06:41.675Z,5.65
2023-04-18T23:09:08.040Z,5.47
2023-04-18T23:11:34.425Z,6.82
2023-04-18T23:14:00.798Z,6.15
2023-04-18T23:16:27.331Z,6.32
2023-04-18T23:18:53.987Z,6.38
2023-04-18T23:21:21.732Z,6.43
2023-04-18T23:23:48.100Z,6.68
2023-04-18T23:26:15.026Z,6.47
2023-04-18T23:28:41.763Z,5.93
2023-04-18T23:31:08.483Z,5.07
2023-04-18T23:33:35.207Z,5.15
2023-04-18T23:36:01.696Z,5.60
2023-04-18T23:38:30.443Z,5.57
2023-04-18T23:40:56.819Z,5.63
2023-04-18T23:43:23.176Z,5.93
2023-04-18T23:45:49.548Z,5.85
2023-04-18T23:48:15.981Z,4.97
2023-04-18T23:50:45.196Z,5.20
2023-04-18T23:53:11.604Z,4.57
2023-04-18T23:55:39.648Z,5.18
2023-04-18T23:58:06.051Z,4.28
